sensor_id;sensor_type;location;lat;lon;timestamp;temperature
37772;DS18B20;23610;59.380;24.642;2023-10-09T00:01:05;5.00
37772;DS18B20;23610;59.380;24.642;2023-10-09T00:06:23;4.94
37772;DS18B20;23610;59.380;24.642;2023-10-09T00:11:41;4.75
37772;DS18B20;23610;59.380;24.642;2023-10-09T00:16:47;4.69
37772;DS18B20;23610;59.380;24.642;2023-10-09T00:21:51;4.44
37772;DS18B20;23610;59.380;24.642;2023-10-09T00:26:57;4.31
37772;DS18B20;23610;59.380;24.642;2023-10-09T00:32:16;4.19
37772;DS18B20;23610;59.380;24.642;2023-10-09T00:37:19;3.88
37772;DS18B20;23610;59.380;24.642;2023-10-09T00:42:27;3.81
37772;DS18B20;23610;59.380;24.642;2023-10-09T00:47:36;3.56
37772;DS18B20;23610;59.380;24.642;2023-10-09T00:52:45;3.44
37772;DS18B20;23610;59.380;24.642;2023-10-09T00:58:06;3.25
37772;DS18B20;23610;59.380;24.642;2023-10-09T01:03:17;3.13
37772;DS18B20;23610;59.380;24.642;2023-10-09T01:08:21;3.13
37772;DS18B20;23610;59.380;24.642;2023-10-09T01:13:49;3.06
37772;DS18B20;23610;59.380;24.642;2023-10-09T01:18:56;3.13
37772;DS18B20;23610;59.380;24.642;2023-10-09T01:24:02;3.19
37772;DS18B20;23610;59.380;24.642;2023-10-09T01:29:08;3.25
37772;DS18B20;23610;59.380;24.642;2023-10-09T01:34:18;3.13
37772;DS18B20;23610;59.380;24.642;2023-10-09T01:39:23;3.31
37772;DS18B20;23610;59.380;24.642;2023-10-09T01:44:29;3.25
37772;DS18B20;23610;59.380;24.642;2023-10-09T01:49:37;3.19
37772;DS18B20;23610;59.380;24.642;2023-10-09T01:54:45;3.13
37772;DS18B20;23610;59.380;24.642;2023-10-09T01:59:52;3.19
37772;DS18B20;23610;59.380;24.642;2023-10-09T02:05:04;3.06
37772;DS18B20;23610;59.380;24.642;2023-10-09T02:10:28;3.19
37772;DS18B20;23610;59.380;24.642;2023-10-09T02:15:31;3.06
37772;DS18B20;23610;59.380;24.642;2023-10-09T02:21:04;3.06
37772;DS18B20;23610;59.380;24.642;2023-10-09T02:26:08;3.00
37772;DS18B20;23610;59.380;24.642;2023-10-09T02:31:12;2.94
37772;DS18B20;23610;59.380;24.642;2023-10-09T02:36:15;3.00
37772;DS18B20;23610;59.380;24.642;2023-10-09T02:41:18;2.88
37772;DS18B20;23610;59.380;24.642;2023-10-09T02:46:23;2.94
37772;DS18B20;23610;59.380;24.642;2023-10-09T02:51:37;3.06
37772;DS18B20;23610;59.380;24.642;2023-10-09T02:56:47;3.06
37772;DS18B20;23610;59.380;24.642;2023-10-09T03:01:56;3.06
37772;DS18B20;23610;59.380;24.642;2023-10-09T03:07:01;3.13
37772;DS18B20;23610;59.380;24.642;2023-10-09T03:12:06;3.13
37772;DS18B20;23610;59.380;24.642;2023-10-09T03:17:12;3.13
37772;DS18B20;23610;59.380;24.642;2023-10-09T03:22:15;2.94
37772;DS18B20;23610;59.380;24.642;2023-10-09T03:27:18;3.06
37772;DS18B20;23610;59.380;24.642;2023-10-09T03:32:21;3.19
37772;DS18B20;23610;59.380;24.642;2023-10-09T03:37:24;3.19
37772;DS18B20;23610;59.380;24.642;2023-10-09T03:42:38;3.25
37772;DS18B20;23610;59.380;24.642;2023-10-09T03:47:44;3.63
37772;DS18B20;23610;59.380;24.642;2023-10-09T03:52:50;4.38
37772;DS18B20;23610;59.380;24.642;2023-10-09T03:57:57;4.94
37772;DS18B20;23610;59.380;24.642;2023-10-09T04:03:01;5.13
37772;DS18B20;23610;59.380;24.642;2023-10-09T04:08:07;5.31
37772;DS18B20;23610;59.380;24.642;2023-10-09T04:13:16;5.50
37772;DS18B20;23610;59.380;24.642;2023-10-09T04:18:24;5.44
37772;DS18B20;23610;59.380;24.642;2023-10-09T04:23:35;5.38
37772;DS18B20;23610;59.380;24.642;2023-10-09T04:28:58;5.44
37772;DS18B20;23610;59.380;24.642;2023-10-09T04:34:00;5.44
37772;DS18B20;23610;59.380;24.642;2023-10-09T04:39:21;5.31
37772;DS18B20;23610;59.380;24.642;2023-10-09T04:44:33;5.19
37772;DS18B20;23610;59.380;24.642;2023-10-09T04:49:39;5.19
37772;DS18B20;23610;59.380;24.642;2023-10-09T04:54:50;5.31
37772;DS18B20;23610;59.380;24.642;2023-10-09T05:00:13;5.19
37772;DS18B20;23610;59.380;24.642;2023-10-09T05:05:30;5.19
37772;DS18B20;23610;59.380;24.642;2023-10-09T05:10:50;5.13
37772;DS18B20;23610;59.380;24.642;2023-10-09T05:16:03;5.13
37772;DS18B20;23610;59.380;24.642;2023-10-09T05:21:06;5.06
37772;DS18B20;23610;59.380;24.642;2023-10-09T05:26:15;5.06
37772;DS18B20;23610;59.380;24.642;2023-10-09T05:31:37;5.06
37772;DS18B20;23610;59.380;24.642;2023-10-09T05:37:04;5.25
37772;DS18B20;23610;59.380;24.642;2023-10-09T05:42:35;5.31
37772;DS18B20;23610;59.380;24.642;2023-10-09T05:47:48;5.38
37772;DS18B20;23610;59.380;24.642;2023-10-09T05:52:57;5.44
37772;DS18B20;23610;59.380;24.642;2023-10-09T05:58:08;5.50
37772;DS18B20;23610;59.380;24.642;2023-10-09T06:03:11;5.56
37772;DS18B20;23610;59.380;24.642;2023-10-09T06:08:25;5.56
37772;DS18B20;23610;59.380;24.642;2023-10-09T06:13:43;5.63
37772;DS18B20;23610;59.380;24.642;2023-10-09T06:18:49;5.75
37772;DS18B20;23610;59.380;24.642;2023-10-09T06:23:56;6.00
37772;DS18B20;23610;59.380;24.642;2023-10-09T06:29:18;6.06
37772;DS18B20;23610;59.380;24.642;2023-10-09T06:34:57;6.13
37772;DS18B20;23610;59.380;24.642;2023-10-09T06:40:17;6.31
37772;DS18B20;23610;59.380;24.642;2023-10-09T06:45:45;6.31
37772;DS18B20;23610;59.380;24.642;2023-10-09T06:50:48;6.38
37772;DS18B20;23610;59.380;24.642;2023-10-09T06:56:11;6.38
37772;DS18B20;23610;59.380;24.642;2023-10-09T07:01:26;6.44
37772;DS18B20;23610;59.380;24.642;2023-10-09T07:06:42;6.44
37772;DS18B20;23610;59.380;24.642;2023-10-09T07:11:54;6.56
37772;DS18B20;23610;59.380;24.642;2023-10-09T07:17:08;6.56
37772;DS18B20;23610;59.380;24.642;2023-10-09T07:22:23;6.63
37772;DS18B20;23610;59.380;24.642;2023-10-09T07:27:32;6.69
37772;DS18B20;23610;59.380;24.642;2023-10-09T07:32:47;6.75
37772;DS18B20;23610;59.380;24.642;2023-10-09T07:37:50;6.69
37772;DS18B20;23610;59.380;24.642;2023-10-09T07:42:53;6.81
37772;DS18B20;23610;59.380;24.642;2023-10-09T07:48:07;6.75
37772;DS18B20;23610;59.380;24.642;2023-10-09T07:53:17;6.75
37772;DS18B20;23610;59.380;24.642;2023-10-09T07:58:29;6.75
37772;DS18B20;23610;59.380;24.642;2023-10-09T08:03:36;6.69
37772;DS18B20;23610;59.380;24.642;2023-10-09T08:08:39;6.63
37772;DS18B20;23610;59.380;24.642;2023-10-09T08:13:42;6.63
37772;DS18B20;23610;59.380;24.642;2023-10-09T08:19:08;6.56
37772;DS18B20;23610;59.380;24.642;2023-10-09T08:24:31;6.56
37772;DS18B20;23610;59.380;24.642;2023-10-09T08:29:52;6.56
37772;DS18B20;23610;59.380;24.642;2023-10-09T08:35:14;6.50
37772;DS18B20;23610;59.380;24.642;2023-10-09T08:40:37;6.56
37772;DS18B20;23610;59.380;24.642;2023-10-09T08:50:56;6.69
37772;DS18B20;23610;59.380;24.642;2023-10-09T08:56:00;6.56
37772;DS18B20;23610;59.380;24.642;2023-10-09T09:01:06;6.38
37772;DS18B20;23610;59.380;24.642;2023-10-09T09:06:08;5.75
37772;DS18B20;23610;59.380;24.642;2023-10-09T09:11:16;5.56
37772;DS18B20;23610;59.380;24.642;2023-10-09T09:16:26;5.50
37772;DS18B20;23610;59.380;24.642;2023-10-09T09:21:47;5.69
37772;DS18B20;23610;59.380;24.642;2023-10-09T09:26:58;5.75
37772;DS18B20;23610;59.380;24.642;2023-10-09T09:32:15;5.94
37772;DS18B20;23610;59.380;24.642;2023-10-09T09:42:26;6.06
37772;DS18B20;23610;59.380;24.642;2023-10-09T09:47:30;5.94
37772;DS18B20;23610;59.380;24.642;2023-10-09T09:52:38;5.94
37772;DS18B20;23610;59.380;24.642;2023-10-09T09:57:44;5.94
37772;DS18B20;23610;59.380;24.642;2023-10-09T10:03:10;5.81
37772;DS18B20;23610;59.380;24.642;2023-10-09T10:08:17;5.94
37772;DS18B20;23610;59.380;24.642;2023-10-09T10:19:00;5.81
37772;DS18B20;23610;59.380;24.642;2023-10-09T10:29:33;5.63
37772;DS18B20;23610;59.380;24.642;2023-10-09T10:34:55;5.56
37772;DS18B20;23610;59.380;24.642;2023-10-09T10:40:00;5.44
37772;DS18B20;23610;59.380;24.642;2023-10-09T10:45:04;5.38
37772;DS18B20;23610;59.380;24.642;2023-10-09T10:50:27;5.31
37772;DS18B20;23610;59.380;24.642;2023-10-09T10:55:32;5.56
37772;DS18B20;23610;59.380;24.642;2023-10-09T11:00:37;5.63
37772;DS18B20;23610;59.380;24.642;2023-10-09T11:06:02;5.63
37772;DS18B20;23610;59.380;24.642;2023-10-09T11:11:17;5.81
37772;DS18B20;23610;59.380;24.642;2023-10-09T11:16:23;5.88
37772;DS18B20;23610;59.380;24.642;2023-10-09T11:21:38;5.75
37772;DS18B20;23610;59.380;24.642;2023-10-09T11:26:44;5.81
37772;DS18B20;23610;59.380;24.642;2023-10-09T11:32:05;5.81
37772;DS18B20;23610;59.380;24.642;2023-10-09T11:37:15;5.44
37772;DS18B20;23610;59.380;24.642;2023-10-09T11:42:22;5.44
37772;DS18B20;23610;59.380;24.642;2023-10-09T11:47:52;5.56
37772;DS18B20;23610;59.380;24.642;2023-10-09T11:53:02;5.50
37772;DS18B20;23610;59.380;24.642;2023-10-09T11:58:11;5.38
37772;DS18B20;23610;59.380;24.642;2023-10-09T12:03:14;5.31
37772;DS18B20;23610;59.380;24.642;2023-10-09T12:08:17;5.13
37772;DS18B20;23610;59.380;24.642;2023-10-09T12:13:19;4.94
37772;DS18B20;23610;59.380;24.642;2023-10-09T12:18:24;4.50
37772;DS18B20;23610;59.380;24.642;2023-10-09T12:23:27;3.88
37772;DS18B20;23610;59.380;24.642;2023-10-09T12:28:31;3.94
37772;DS18B20;23610;59.380;24.642;2023-10-09T12:33:37;3.88
37772;DS18B20;23610;59.380;24.642;2023-10-09T12:38:42;4.13
37772;DS18B20;23610;59.380;24.642;2023-10-09T12:43:48;4.38
37772;DS18B20;23610;59.380;24.642;2023-10-09T12:48:54;4.56
37772;DS18B20;23610;59.380;24.642;2023-10-09T12:53:58;4.94
37772;DS18B20;23610;59.380;24.642;2023-10-09T12:59:01;5.50
37772;DS18B20;23610;59.380;24.642;2023-10-09T13:04:04;5.81
37772;DS18B20;23610;59.380;24.642;2023-10-09T13:09:16;5.81
37772;DS18B20;23610;59.380;24.642;2023-10-09T13:14:28;5.50
37772;DS18B20;23610;59.380;24.642;2023-10-09T13:19:31;5.63
37772;DS18B20;23610;59.380;24.642;2023-10-09T13:24:34;5.69
37772;DS18B20;23610;59.380;24.642;2023-10-09T13:29:42;5.94
37772;DS18B20;23610;59.380;24.642;2023-10-09T13:34:44;6.06
37772;DS18B20;23610;59.380;24.642;2023-10-09T13:39:47;6.25
37772;DS18B20;23610;59.380;24.642;2023-10-09T13:44:56;6.31
37772;DS18B20;23610;59.380;24.642;2023-10-09T13:50:06;6.44
37772;DS18B20;23610;59.380;24.642;2023-10-09T13:55:12;6.56
37772;DS18B20;23610;59.380;24.642;2023-10-09T14:00:20;6.63
37772;DS18B20;23610;59.380;24.642;2023-10-09T14:05:36;6.56
37772;DS18B20;23610;59.380;24.642;2023-10-09T14:10:39;6.44
37772;DS18B20;23610;59.380;24.642;2023-10-09T14:15:42;6.25
37772;DS18B20;23610;59.380;24.642;2023-10-09T14:20:45;5.94
37772;DS18B20;23610;59.380;24.642;2023-10-09T14:25:49;6.00
37772;DS18B20;23610;59.380;24.642;2023-10-09T14:30:53;6.00
37772;DS18B20;23610;59.380;24.642;2023-10-09T14:36:01;5.94
37772;DS18B20;23610;59.380;24.642;2023-10-09T14:41:07;5.88
37772;DS18B20;23610;59.380;24.642;2023-10-09T14:46:14;5.75
37772;DS18B20;23610;59.380;24.642;2023-10-09T14:51:17;5.69
37772;DS18B20;23610;59.380;24.642;2023-10-09T14:56:20;5.38
37772;DS18B20;23610;59.380;24.642;2023-10-09T15:01:31;5.25
37772;DS18B20;23610;59.380;24.642;2023-10-09T15:06:33;5.06
37772;DS18B20;23610;59.380;24.642;2023-10-09T15:11:37;5.00
37772;DS18B20;23610;59.380;24.642;2023-10-09T15:16:41;5.00
37772;DS18B20;23610;59.380;24.642;2023-10-09T15:21:45;4.88
37772;DS18B20;23610;59.380;24.642;2023-10-09T15:26:48;4.75
37772;DS18B20;23610;59.380;24.642;2023-10-09T15:32:01;4.75
37772;DS18B20;23610;59.380;24.642;2023-10-09T15:37:08;4.56
37772;DS18B20;23610;59.380;24.642;2023-10-09T15:42:10;4.44
37772;DS18B20;23610;59.380;24.642;2023-10-09T15:47:15;4.31
37772;DS18B20;23610;59.380;24.642;2023-10-09T15:52:18;4.19
37772;DS18B20;23610;59.380;24.642;2023-10-09T15:57:22;4.19
37772;DS18B20;23610;59.380;24.642;2023-10-09T16:02:25;4.06
37772;DS18B20;23610;59.380;24.642;2023-10-09T16:07:28;4.00
37772;DS18B20;23610;59.380;24.642;2023-10-09T16:12:32;3.88
37772;DS18B20;23610;59.380;24.642;2023-10-09T16:17:35;3.81
37772;DS18B20;23610;59.380;24.642;2023-10-09T16:22:43;3.69
37772;DS18B20;23610;59.380;24.642;2023-10-09T16:27:48;3.94
37772;DS18B20;23610;59.380;24.642;2023-10-09T16:32:52;4.19
37772;DS18B20;23610;59.380;24.642;2023-10-09T16:37:55;4.38
37772;DS18B20;23610;59.380;24.642;2023-10-09T16:42:58;4.44
37772;DS18B20;23610;59.380;24.642;2023-10-09T16:48:03;4.38
37772;DS18B20;23610;59.380;24.642;2023-10-09T16:53:10;4.31
37772;DS18B20;23610;59.380;24.642;2023-10-09T16:58:14;4.13
37772;DS18B20;23610;59.380;24.642;2023-10-09T17:03:17;4.00
37772;DS18B20;23610;59.380;24.642;2023-10-09T17:08:23;3.94
37772;DS18B20;23610;59.380;24.642;2023-10-09T17:13:32;3.75
37772;DS18B20;23610;59.380;24.642;2023-10-09T17:18:35;3.50
37772;DS18B20;23610;59.380;24.642;2023-10-09T17:23:38;3.44
37772;DS18B20;23610;59.380;24.642;2023-10-09T17:28:40;3.44
37772;DS18B20;23610;59.380;24.642;2023-10-09T17:33:43;3.31
37772;DS18B20;23610;59.380;24.642;2023-10-09T17:38:47;3.19
37772;DS18B20;23610;59.380;24.642;2023-10-09T17:43:52;3.19
37772;DS18B20;23610;59.380;24.642;2023-10-09T17:48:57;3.06
37772;DS18B20;23610;59.380;24.642;2023-10-09T17:53:59;2.94
37772;DS18B20;23610;59.380;24.642;2023-10-09T17:59:02;3.00
37772;DS18B20;23610;59.380;24.642;2023-10-09T18:04:06;3.06
37772;DS18B20;23610;59.380;24.642;2023-10-09T18:09:08;3.06
37772;DS18B20;23610;59.380;24.642;2023-10-09T18:14:20;3.06
37772;DS18B20;23610;59.380;24.642;2023-10-09T18:19:26;3.06
37772;DS18B20;23610;59.380;24.642;2023-10-09T18:24:31;3.13
37772;DS18B20;23610;59.380;24.642;2023-10-09T18:29:39;3.06
37772;DS18B20;23610;59.380;24.642;2023-10-09T18:34:42;3.25
37772;DS18B20;23610;59.380;24.642;2023-10-09T18:39:48;3.31
37772;DS18B20;23610;59.380;24.642;2023-10-09T18:44:50;3.19
37772;DS18B20;23610;59.380;24.642;2023-10-09T18:49:54;3.25
37772;DS18B20;23610;59.380;24.642;2023-10-09T18:54:56;3.19
37772;DS18B20;23610;59.380;24.642;2023-10-09T19:00:02;3.13
37772;DS18B20;23610;59.380;24.642;2023-10-09T19:05:08;3.25
37772;DS18B20;23610;59.380;24.642;2023-10-09T19:10:11;3.19
37772;DS18B20;23610;59.380;24.642;2023-10-09T19:15:20;3.19
37772;DS18B20;23610;59.380;24.642;2023-10-09T19:20:25;3.06
37772;DS18B20;23610;59.380;24.642;2023-10-09T19:25:28;3.06
37772;DS18B20;23610;59.380;24.642;2023-10-09T19:30:35;3.13
37772;DS18B20;23610;59.380;24.642;2023-10-09T19:35:38;3.06
37772;DS18B20;23610;59.380;24.642;2023-10-09T19:40:50;3.06
37772;DS18B20;23610;59.380;24.642;2023-10-09T19:46:02;3.00
37772;DS18B20;23610;59.380;24.642;2023-10-09T19:51:07;3.00
37772;DS18B20;23610;59.380;24.642;2023-10-09T19:56:10;3.00
37772;DS18B20;23610;59.380;24.642;2023-10-09T20:01:13;2.88
37772;DS18B20;23610;59.380;24.642;2023-10-09T20:06:17;2.81
37772;DS18B20;23610;59.380;24.642;2023-10-09T20:11:21;2.56
37772;DS18B20;23610;59.380;24.642;2023-10-09T20:16:25;2.63
37772;DS18B20;23610;59.380;24.642;2023-10-09T20:21:29;2.50
37772;DS18B20;23610;59.380;24.642;2023-10-09T20:26:32;2.31
37772;DS18B20;23610;59.380;24.642;2023-10-09T20:31:35;2.31
37772;DS18B20;23610;59.380;24.642;2023-10-09T20:36:40;2.38
37772;DS18B20;23610;59.380;24.642;2023-10-09T20:41:44;2.25
37772;DS18B20;23610;59.380;24.642;2023-10-09T20:46:48;2.25
37772;DS18B20;23610;59.380;24.642;2023-10-09T20:51:52;2.38
37772;DS18B20;23610;59.380;24.642;2023-10-09T20:56:59;2.38
37772;DS18B20;23610;59.380;24.642;2023-10-09T21:02:02;2.38
37772;DS18B20;23610;59.380;24.642;2023-10-09T21:07:08;2.38
37772;DS18B20;23610;59.380;24.642;2023-10-09T21:12:11;2.44
37772;DS18B20;23610;59.380;24.642;2023-10-09T21:17:14;2.44
37772;DS18B20;23610;59.380;24.642;2023-10-09T21:22:18;2.44
37772;DS18B20;23610;59.380;24.642;2023-10-09T21:27:21;2.25
37772;DS18B20;23610;59.380;24.642;2023-10-09T21:32:23;2.19
37772;DS18B20;23610;59.380;24.642;2023-10-09T21:37:29;2.19
37772;DS18B20;23610;59.380;24.642;2023-10-09T21:42:32;2.06
37772;DS18B20;23610;59.380;24.642;2023-10-09T21:47:34;2.13
37772;DS18B20;23610;59.380;24.642;2023-10-09T21:52:37;2.06
37772;DS18B20;23610;59.380;24.642;2023-10-09T21:57:40;1.88
37772;DS18B20;23610;59.380;24.642;2023-10-09T22:02:46;1.94
37772;DS18B20;23610;59.380;24.642;2023-10-09T22:07:52;1.88
37772;DS18B20;23610;59.380;24.642;2023-10-09T22:12:55;1.88
37772;DS18B20;23610;59.380;24.642;2023-10-09T22:17:59;1.81
37772;DS18B20;23610;59.380;24.642;2023-10-09T22:23:03;1.75
37772;DS18B20;23610;59.380;24.642;2023-10-09T22:28:13;1.81
37772;DS18B20;23610;59.380;24.642;2023-10-09T22:33:17;1.94
37772;DS18B20;23610;59.380;24.642;2023-10-09T22:38:22;1.94
37772;DS18B20;23610;59.380;24.642;2023-10-09T22:43:25;1.94
37772;DS18B20;23610;59.380;24.642;2023-10-09T22:48:28;2.00
37772;DS18B20;23610;59.380;24.642;2023-10-09T22:53:31;1.94
37772;DS18B20;23610;59.380;24.642;2023-10-09T22:58:40;1.94
37772;DS18B20;23610;59.380;24.642;2023-10-09T23:03:54;1.88
37772;DS18B20;23610;59.380;24.642;2023-10-09T23:09:17;1.88
37772;DS18B20;23610;59.380;24.642;2023-10-09T23:14:34;1.81
37772;DS18B20;23610;59.380;24.642;2023-10-09T23:19:37;1.69
37772;DS18B20;23610;59.380;24.642;2023-10-09T23:24:49;1.56
37772;DS18B20;23610;59.380;24.642;2023-10-09T23:29:53;1.56
37772;DS18B20;23610;59.380;24.642;2023-10-09T23:34:55;1.31
37772;DS18B20;23610;59.380;24.642;2023-10-09T23:39:58;1.25
37772;DS18B20;23610;59.380;24.642;2023-10-09T23:45:00;1.06
37772;DS18B20;23610;59.380;24.642;2023-10-09T23:50:08;0.94
37772;DS18B20;23610;59.380;24.642;2023-10-09T23:55:18;0.88
